createdAt,value
2022-12-16T00:00:51.204Z,99759.78
2022-12-16T00:01:27.339Z,99750.00
2022-12-16T00:02:14.199Z,99759.47
2022-12-16T00:02:47.877Z,99753.25
2022-12-16T00:03:35.976Z,99748.78
2022-12-16T00:04:10.956Z,99754.13
2022-12-16T00:04:58.135Z,99754.88
2022-12-16T00:05:31.888Z,99748.78
2022-12-16T00:06:14.351Z,99760.91
2022-12-16T00:06:48.247Z,99762.44
2022-12-16T00:07:22.213Z,99767.66
2022-12-16T00:08:02.151Z,99768.47
2022-12-16T00:08:39.362Z,99775.41
2022-12-16T00:09:12.832Z,99765.28
2022-12-16T00:09:53.115Z,99766.88
2022-12-16T00:10:47.162Z,99770.31
2022-12-16T00:11:27.119Z,99775.03
2022-12-16T00:12:07.169Z,99771.50
2022-12-16T00:12:48.140Z,99780.03
2022-12-16T00:13:29.638Z,99769.63
2022-12-16T00:14:11.131Z,99785.06
2022-12-16T00:14:51.183Z,99783.19
2022-12-16T00:15:32.120Z,99780.47
2022-12-16T00:16:18.347Z,99782.19
2022-12-16T00:16:58.133Z,99780.53
2022-12-16T00:17:39.685Z,99780.38
2022-12-16T00:18:21.118Z,99774.09
2022-12-16T00:19:01.204Z,99786.38
2022-12-16T00:19:42.112Z,99777.63
2022-12-16T00:20:22.164Z,99751.63
2022-12-16T00:21:02.138Z,99766.63
2022-12-16T00:21:42.220Z,99773.38
2022-12-16T00:22:23.121Z,99763.84
2022-12-16T00:23:03.202Z,99761.59
2022-12-16T00:23:46.103Z,99773.06
2022-12-16T00:24:26.161Z,99761.81
2022-12-16T00:25:14.132Z,99782.50
2022-12-16T00:25:52.225Z,99759.84
2022-12-16T00:26:39.125Z,99763.31
2022-12-16T00:27:13.155Z,99745.47
2022-12-16T00:27:58.811Z,99762.69
2022-12-16T00:28:40.194Z,99772.03
2022-12-16T00:29:20.109Z,99760.59
2022-12-16T00:30:00.230Z,99751.19
2022-12-16T00:30:40.105Z,99759.47
2022-12-16T00:31:20.231Z,99766.38
2022-12-16T00:32:00.192Z,99767.09
2022-12-16T00:32:40.184Z,99771.41
2022-12-16T00:33:20.109Z,99762.66
2022-12-16T00:34:04.177Z,99751.44
2022-12-16T00:34:44.095Z,99766.00
2022-12-16T00:35:24.152Z,99764.16
2022-12-16T00:36:05.085Z,99767.59
2022-12-16T00:36:45.120Z,99754.72
2022-12-16T00:37:25.083Z,99750.13
2022-12-16T00:38:05.154Z,99748.41
2022-12-16T00:38:46.114Z,99757.13
2022-12-16T00:39:26.147Z,99770.91
2022-12-16T00:40:07.089Z,99766.84
2022-12-16T00:40:47.124Z,99765.72
2022-12-16T00:41:28.089Z,99765.94
2022-12-16T00:42:08.160Z,99764.41
2022-12-16T00:42:49.074Z,99757.25
2022-12-16T00:43:29.452Z,99753.56
2022-12-16T00:44:10.088Z,99761.31
2022-12-16T00:44:50.137Z,99746.53
2022-12-16T00:45:30.124Z,99756.09
2022-12-16T00:46:10.245Z,99762.97
2022-12-16T00:46:50.071Z,99749.06
2022-12-16T00:47:30.147Z,99748.22
2022-12-16T00:48:11.067Z,99745.44
2022-12-16T00:48:51.125Z,99765.47
2022-12-16T00:49:32.123Z,99755.03
2022-12-16T00:50:27.072Z,99771.50
2022-12-16T00:51:21.094Z,99760.19
2022-12-16T00:52:15.092Z,99759.06
2022-12-16T00:53:09.078Z,99759.94
2022-12-16T00:54:03.076Z,99758.88
2022-12-16T00:54:50.092Z,99755.28
2022-12-16T00:55:26.236Z,99756.25
2022-12-16T00:56:16.060Z,99760.56
2022-12-16T00:56:50.170Z,99759.63
2022-12-16T00:57:39.082Z,99758.63
2022-12-16T00:58:13.138Z,99755.03
2022-12-16T00:59:00.078Z,99749.13
2022-12-16T00:59:34.112Z,99755.88
2022-12-16T01:00:19.094Z,99750.84
2022-12-16T01:00:59.179Z,99751.81
2022-12-16T01:01:39.144Z,99750.88
2022-12-16T01:02:20.256Z,99750.75
2022-12-16T01:03:00.168Z,99751.69
2022-12-16T01:03:41.806Z,99750.84
2022-12-16T01:04:22.068Z,99740.34
2022-12-16T01:05:02.121Z,99744.34
2022-12-16T01:05:45.084Z,99744.53
2022-12-16T01:06:25.143Z,99752.28
2022-12-16T01:07:06.074Z,99748.97
2022-12-16T01:07:46.144Z,99755.00
2022-12-16T01:08:27.057Z,99749.72
2022-12-16T01:09:07.084Z,99759.28
2022-12-16T01:09:49.075Z,99753.22
2022-12-16T01:10:31.105Z,99736.53
2022-12-16T01:11:12.082Z,99753.03
2022-12-16T01:11:53.118Z,99753.06
2022-12-16T01:12:34.057Z,99750.41
2022-12-16T01:13:14.178Z,99759.19
2022-12-16T01:13:58.060Z,99740.09
2022-12-16T01:14:38.105Z,99749.75
2022-12-16T01:15:20.033Z,99750.56
2022-12-16T01:16:00.181Z,99754.16
2022-12-16T01:16:41.121Z,99757.56
2022-12-16T01:17:21.144Z,99750.00
2022-12-16T01:18:01.042Z,99759.44
2022-12-16T01:18:42.090Z,99750.78
2022-12-16T01:19:22.036Z,99752.91
2022-12-16T01:20:02.276Z,99755.38
2022-12-16T01:20:42.042Z,99763.00
2022-12-16T01:21:22.088Z,99763.66
2022-12-16T01:22:02.062Z,99766.38
2022-12-16T01:22:43.126Z,99736.66
2022-12-16T01:23:23.064Z,99759.19
2022-12-16T01:24:03.109Z,99754.84
2022-12-16T01:24:43.039Z,99750.41
2022-12-16T01:25:23.155Z,99747.00
2022-12-16T01:26:07.043Z,99739.13
2022-12-16T01:26:48.082Z,99748.63
2022-12-16T01:27:28.057Z,99756.53
2022-12-16T01:28:08.150Z,99757.31
2022-12-16T01:28:48.028Z,99750.88
2022-12-16T01:29:28.120Z,99754.59
2022-12-16T01:30:08.047Z,99755.53
2022-12-16T01:30:48.113Z,99756.09
2022-12-16T01:31:29.058Z,99743.59
2022-12-16T01:32:09.130Z,99753.66
2022-12-16T01:32:50.099Z,99749.13
2022-12-16T01:33:31.614Z,99760.56
2022-12-16T01:34:12.034Z,99748.44
2022-12-16T01:35:00.507Z,99748.50
2022-12-16T01:35:56.586Z,99749.50
2022-12-16T01:36:37.122Z,99754.72
2022-12-16T01:37:19.037Z,99744.38
2022-12-16T01:38:06.062Z,99734.66
2022-12-16T01:39:01.035Z,99735.31
2022-12-16T01:39:56.019Z,99720.72
2022-12-16T01:40:50.058Z,99718.00
2022-12-16T01:41:45.004Z,99731.38
2022-12-16T01:42:40.038Z,99719.53
2022-12-16T01:43:34.462Z,99736.41
2022-12-16T01:44:25.125Z,99740.56
2022-12-16T01:45:38.065Z,99739.84
2022-12-16T01:46:25.164Z,99737.00
2022-12-16T01:47:12.999Z,99741.06
2022-12-16T01:47:53.064Z,99729.91
2022-12-16T01:49:05.038Z,99729.78
2022-12-16T01:49:54.170Z,99728.13
2022-12-16T01:50:36.012Z,99735.09
2022-12-16T01:51:31.101Z,99719.25
2022-12-16T01:52:15.011Z,99727.28
2022-12-16T01:53:01.191Z,99714.22
2022-12-16T01:53:43.018Z,99732.28
2022-12-16T01:54:41.057Z,99728.88
2022-12-16T01:55:24.933Z,99721.97
2022-12-16T01:56:13.009Z,99721.03
2022-12-16T01:56:53.944Z,99720.13
2022-12-16T01:57:56.010Z,99727.00
2022-12-16T01:58:33.228Z,99715.34
2022-12-16T01:59:21.026Z,99732.56
2022-12-16T02:00:02.043Z,99733.50
2022-12-16T02:00:43.107Z,99724.66
2022-12-16T02:01:24.109Z,99734.69
2022-12-16T02:02:05.192Z,99721.75
2022-12-16T02:02:45.107Z,99731.31
2022-12-16T02:03:26.084Z,99731.44
2022-12-16T02:04:10.010Z,99732.81
2022-12-16T02:05:15.023Z,99713.63
2022-12-16T02:05:49.074Z,99735.22
2022-12-16T02:06:35.984Z,99724.69
2022-12-16T02:07:09.663Z,99721.25
2022-12-16T02:07:57.988Z,99731.00
2022-12-16T02:08:31.667Z,99720.25
2022-12-16T02:09:22.994Z,99729.78
2022-12-16T02:09:56.850Z,99725.44
2022-12-16T02:11:27.049Z,99718.41
2022-12-16T02:12:38.122Z,99715.50
2022-12-16T02:13:31.032Z,99699.97
2022-12-16T02:14:44.996Z,99708.06
2022-12-16T02:15:55.106Z,99700.78
2022-12-16T02:17:16.053Z,99707.81
2022-12-16T02:18:24.095Z,99711.19
2022-12-16T02:19:52.990Z,99682.47
2022-12-16T02:21:11.037Z,99689.34
2022-12-16T02:22:40.035Z,99693.25
2022-12-16T02:23:58.052Z,99698.53
2022-12-16T02:25:32.999Z,99694.06
2022-12-16T02:26:59.046Z,99697.22
2022-12-16T02:28:17.994Z,99686.63
2022-12-16T02:29:28.024Z,99693.03
2022-12-16T02:30:14.970Z,99686.59
2022-12-16T02:31:38.035Z,99682.69
2022-12-16T02:32:45.956Z,99680.75
2022-12-16T02:34:08.013Z,99676.91
2022-12-16T02:34:55.759Z,99676.47
2022-12-16T02:36:06.969Z,99681.34
2022-12-16T02:37:02.440Z,99671.16
2022-12-16T02:38:00.958Z,99680.34
2022-12-16T02:39:14.984Z,99657.41
2022-12-16T02:40:03.004Z,99666.06
2022-12-16T02:41:00.960Z,99686.84
2022-12-16T02:41:50.107Z,99682.16
2022-12-16T02:42:46.977Z,99666.00
2022-12-16T02:43:57.099Z,99682.72
2022-12-16T02:45:10.992Z,99681.59
2022-12-16T02:45:52.048Z,99678.28
2022-12-16T02:46:36.953Z,99671.09
2022-12-16T02:47:16.973Z,99668.31
2022-12-16T02:47:56.939Z,99681.59
2022-12-16T02:48:37.007Z,99660.69
2022-12-16T02:49:20.942Z,99670.75
2022-12-16T02:50:01.989Z,99676.47
2022-12-16T02:50:46.978Z,99671.03
2022-12-16T02:51:29.040Z,99674.47
2022-12-16T02:52:08.939Z,99667.19
2022-12-16T02:52:49.055Z,99664.47
2022-12-16T02:53:29.253Z,99658.16
2022-12-16T02:54:12.016Z,99650.84
2022-12-16T02:54:52.946Z,99657.25
2022-12-16T02:56:08.006Z,99666.06
2022-12-16T02:57:02.596Z,99661.28
2022-12-16T02:58:02.946Z,99647.31
2022-12-16T02:59:03.631Z,99660.91
2022-12-16T03:00:20.920Z,99646.91
2022-12-16T03:01:41.123Z,99650.69
2022-12-16T03:02:46.058Z,99653.63
2022-12-16T03:03:42.039Z,99650.34
2022-12-16T03:04:42.037Z,99650.34
2022-12-16T03:05:46.926Z,99643.69
2022-12-16T03:06:29.017Z,99650.97
2022-12-16T03:07:09.953Z,99639.81
2022-12-16T03:07:51.993Z,99647.91
2022-12-16T03:08:37.938Z,99640.66
2022-12-16T03:09:20.972Z,99638.97
2022-12-16T03:10:02.931Z,99650.22
2022-12-16T03:10:53.959Z,99643.97
2022-12-16T03:11:36.911Z,99640.47
2022-12-16T03:12:27.936Z,99647.47
2022-12-16T03:13:02.318Z,99643.19
2022-12-16T03:13:59.902Z,99638.19
2022-12-16T03:14:35.171Z,99648.50
2022-12-16T03:15:24.923Z,99645.47
2022-12-16T03:16:00.963Z,99650.50
2022-12-16T03:16:47.974Z,99638.03
2022-12-16T03:17:23.938Z,99648.50
2022-12-16T03:18:04.910Z,99639.63
2022-12-16T03:18:39.981Z,99639.47
2022-12-16T03:19:14.425Z,99636.03
2022-12-16T03:20:07.923Z,99644.47
2022-12-16T03:21:01.956Z,99637.47
2022-12-16T03:22:02.753Z,99633.88
2022-12-16T03:22:44.915Z,99629.22
2022-12-16T03:23:31.176Z,99631.41
2022-12-16T03:24:10.113Z,99621.09
2022-12-16T03:24:56.924Z,99642.75
2022-12-16T03:25:31.226Z,99631.41
2022-12-16T03:26:23.921Z,99642.66
2022-12-16T03:27:32.135Z,99627.72
2022-12-16T03:28:54.912Z,99642.97
2022-12-16T03:30:09.149Z,99637.63
2022-12-16T03:31:02.952Z,99629.78
2022-12-16T03:31:47.064Z,99632.97
2022-12-16T03:33:00.921Z,99633.88
2022-12-16T03:33:40.971Z,99630.59
2022-12-16T03:34:27.951Z,99634.16
2022-12-16T03:35:33.986Z,99643.69
2022-12-16T03:36:15.461Z,99631.59
2022-12-16T03:36:59.883Z,99637.53
2022-12-16T03:37:37.950Z,99638.47
2022-12-16T03:38:12.700Z,99623.84
2022-12-16T03:38:53.894Z,99638.47
2022-12-16T03:39:34.905Z,99635.75
2022-12-16T03:40:10.516Z,99639.41
2022-12-16T03:40:58.900Z,99623.28
2022-12-16T03:41:33.127Z,99636.75
2022-12-16T03:42:20.898Z,99641.19
2022-12-16T03:42:55.439Z,99646.34
2022-12-16T03:43:43.877Z,99636.03
2022-12-16T03:44:19.333Z,99644.34
2022-12-16T03:44:59.917Z,99637.53
2022-12-16T03:45:46.203Z,99642.63
2022-12-16T03:46:26.917Z,99632.16
2022-12-16T03:47:07.989Z,99633.81
2022-12-16T03:47:47.876Z,99635.91
2022-12-16T03:48:31.960Z,99637.63
2022-12-16T03:49:11.882Z,99644.63
2022-12-16T03:49:51.918Z,99636.59
2022-12-16T03:50:39.888Z,99633.88
2022-12-16T03:51:20.906Z,99631.75
2022-12-16T03:52:01.860Z,99621.44
2022-12-16T03:52:42.907Z,99636.88
2022-12-16T03:53:22.884Z,99636.19
2022-12-16T03:54:02.968Z,99633.38
2022-12-16T03:54:43.890Z,99634.75
2022-12-16T03:55:23.979Z,99630.03
2022-12-16T03:56:04.875Z,99629.88
2022-12-16T03:56:44.919Z,99633.34
2022-12-16T03:57:24.860Z,99625.50
2022-12-16T03:58:04.896Z,99633.53
2022-12-16T03:58:48.848Z,99630.72
2022-12-16T03:59:28.897Z,99626.28
2022-12-16T04:00:08.864Z,99631.22
2022-12-16T04:00:50.613Z,99630.16
2022-12-16T04:01:31.020Z,99613.63
2022-12-16T04:02:12.005Z,99627.31
2022-12-16T04:02:52.059Z,99602.66
2022-12-16T04:03:32.336Z,99617.72
2022-12-16T04:04:12.848Z,99614.34
2022-12-16T04:04:52.968Z,99624.94
2022-12-16T04:05:33.856Z,99623.56
2022-12-16T04:06:18.505Z,99620.78
2022-12-16T04:07:18.902Z,99614.44
2022-12-16T04:08:01.899Z,99616.16
2022-12-16T04:08:42.856Z,99598.66
2022-12-16T04:09:22.897Z,99614.28
2022-12-16T04:10:02.848Z,99615.13
2022-12-16T04:11:01.560Z,99614.16
2022-12-16T04:12:00.845Z,99596.19
2022-12-16T04:12:59.891Z,99608.84
2022-12-16T04:13:52.659Z,99615.69
2022-12-16T04:14:50.311Z,99594.16
2022-12-16T04:15:52.963Z,99606.13
2022-12-16T04:16:45.407Z,99602.16
2022-12-16T04:17:38.250Z,99608.69
2022-12-16T04:18:46.848Z,99610.47
2022-12-16T04:19:50.737Z,99604.19
2022-12-16T04:20:50.715Z,99609.78
2022-12-16T04:21:49.843Z,99608.56
2022-12-16T04:22:52.455Z,99613.34
2022-12-16T04:23:53.875Z,99616.63
2022-12-16T04:24:35.896Z,99610.19
2022-12-16T04:25:29.824Z,99619.28
2022-12-16T04:26:10.888Z,99611.25
2022-12-16T04:27:15.328Z,99600.34
2022-12-16T04:27:58.670Z,99613.41
2022-12-16T04:28:38.844Z,99612.44
2022-12-16T04:29:18.838Z,99617.56
2022-12-16T04:30:11.622Z,99613.91
2022-12-16T04:30:45.578Z,99603.69
2022-12-16T04:31:25.875Z,99615.56
2022-12-16T04:31:59.868Z,99610.28
2022-12-16T04:32:53.630Z,99602.81
2022-12-16T04:33:52.827Z,99610.69
2022-12-16T04:34:35.849Z,99605.56
2022-12-16T04:35:28.463Z,99614.72
2022-12-16T04:36:33.825Z,99615.22
2022-12-16T04:37:26.290Z,99618.31
2022-12-16T04:38:30.832Z,99606.97
2022-12-16T04:39:23.149Z,99611.97
2022-12-16T04:40:21.847Z,99610.41
2022-12-16T04:41:14.592Z,99587.66
2022-12-16T04:42:10.772Z,99603.25
2022-12-16T04:43:09.816Z,99611.78
2022-12-16T04:44:02.519Z,99614.22
2022-12-16T04:44:55.311Z,99618.69
2022-12-16T04:45:54.913Z,99615.28
2022-12-16T04:46:48.334Z,99612.75
2022-12-16T04:47:41.306Z,99623.72
2022-12-16T04:48:39.825Z,99617.56
2022-12-16T04:49:32.515Z,99606.19
2022-12-16T04:50:25.791Z,99608.06
2022-12-16T04:51:25.847Z,99620.28
2022-12-16T04:52:18.410Z,99614.84
2022-12-16T04:53:12.258Z,99620.84
2022-12-16T04:54:10.840Z,99620.00
2022-12-16T04:55:03.290Z,99616.41
2022-12-16T04:56:02.107Z,99609.47
2022-12-16T04:57:03.822Z,99617.34
2022-12-16T04:57:56.853Z,99612.91
2022-12-16T04:58:49.318Z,99613.41
2022-12-16T04:59:47.816Z,99622.44
2022-12-16T05:00:40.418Z,99611.84
2022-12-16T05:01:33.053Z,99618.06
2022-12-16T05:02:31.963Z,99627.75
2022-12-16T05:03:24.450Z,99623.88
2022-12-16T05:04:17.560Z,99625.47
2022-12-16T05:05:16.817Z,99622.72
2022-12-16T05:06:09.239Z,99620.84
2022-12-16T05:07:01.972Z,99625.75
2022-12-16T05:08:00.808Z,99629.16
2022-12-16T05:08:53.553Z,99615.16
2022-12-16T05:09:45.944Z,99632.88
2022-12-16T05:10:44.768Z,99636.09
2022-12-16T05:11:37.618Z,99624.72
2022-12-16T05:12:30.413Z,99634.31
2022-12-16T05:13:30.046Z,99638.69
2022-12-16T05:14:22.332Z,99644.56
2022-12-16T05:15:14.876Z,99639.97
2022-12-16T05:16:13.820Z,99642.50
2022-12-16T05:17:06.321Z,99646.66
2022-12-16T05:17:59.255Z,99638.91
2022-12-16T05:19:15.051Z,99645.72
2022-12-16T05:20:13.344Z,99649.44
2022-12-16T05:21:12.795Z,99649.22
2022-12-16T05:22:11.695Z,99651.50
2022-12-16T05:23:10.758Z,99654.78
2022-12-16T05:24:10.351Z,99623.09
2022-12-16T05:25:09.792Z,99666.97
2022-12-16T05:26:08.337Z,99666.97
2022-12-16T05:27:07.781Z,99665.59
2022-12-16T05:28:06.242Z,99669.06
2022-12-16T05:29:05.753Z,99669.91
2022-12-16T05:30:04.514Z,99666.25
2022-12-16T05:31:03.866Z,99669.97
2022-12-16T05:32:02.197Z,99648.50
2022-12-16T05:33:01.761Z,99663.69
2022-12-16T05:34:01.304Z,99657.59
2022-12-16T05:35:00.761Z,99666.72
2022-12-16T05:35:59.520Z,99652.66
2022-12-16T05:36:58.778Z,99652.25
2022-12-16T05:37:57.635Z,99645.66
2022-12-16T05:38:56.770Z,99634.13
2022-12-16T05:39:55.630Z,99641.28
2022-12-16T05:40:54.763Z,99657.53
2022-12-16T05:41:53.474Z,99647.34
2022-12-16T05:42:52.760Z,99656.44
2022-12-16T05:43:52.263Z,99654.44
2022-12-16T05:44:51.771Z,99645.94
2022-12-16T05:45:50.475Z,99656.16
2022-12-16T05:46:49.868Z,99643.13
2022-12-16T05:47:49.475Z,99641.28
2022-12-16T05:48:48.775Z,99653.59
2022-12-16T05:49:47.719Z,99654.25
2022-12-16T05:50:47.747Z,99637.75
2022-12-16T05:51:47.272Z,99644.78
2022-12-16T05:52:46.764Z,99649.22
2022-12-16T05:53:46.423Z,99652.38
2022-12-16T05:54:45.755Z,99643.66
2022-12-16T05:55:44.262Z,99635.34
2022-12-16T05:56:43.728Z,99652.66
2022-12-16T05:57:42.680Z,99645.56
2022-12-16T05:58:48.733Z,99657.03
2022-12-16T06:00:13.749Z,99650.75
2022-12-16T06:01:05.972Z,99652.06
2022-12-16T06:02:11.829Z,99624.44
2022-12-16T06:03:05.441Z,99635.09
2022-12-16T06:04:15.585Z,99642.06
2022-12-16T06:05:10.076Z,99628.25
2022-12-16T06:06:08.826Z,99636.19
2022-12-16T06:07:02.419Z,99632.97
2022-12-16T06:07:54.912Z,99629.38
2022-12-16T06:08:53.701Z,99633.75
2022-12-16T06:09:46.304Z,99637.19
2022-12-16T06:10:39.080Z,99642.19
2022-12-16T06:11:37.747Z,99643.78
2022-12-16T06:12:31.514Z,99634.16
2022-12-16T06:13:23.965Z,99638.47
2022-12-16T06:14:22.733Z,99637.03
2022-12-16T06:15:15.320Z,99636.31
2022-12-16T06:16:09.066Z,99624.41
2022-12-16T06:17:08.734Z,99636.03
2022-12-16T06:18:01.339Z,99637.63
2022-12-16T06:18:53.795Z,99635.00
2022-12-16T06:19:52.724Z,99635.00
2022-12-16T06:20:45.413Z,99633.25
2022-12-16T06:21:38.613Z,99632.06
2022-12-16T06:22:37.721Z,99649.47
2022-12-16T06:23:30.620Z,99643.03
2022-12-16T06:24:23.598Z,99625.44
2022-12-16T06:25:22.702Z,99643.88
2022-12-16T06:26:15.617Z,99640.28
2022-12-16T06:27:08.170Z,99635.19
2022-12-16T06:28:06.733Z,99645.88
2022-12-16T06:28:59.583Z,99635.44
2022-12-16T06:29:52.271Z,99639.59
2022-12-16T06:30:51.688Z,99618.25
2022-12-16T06:31:46.893Z,99626.56
2022-12-16T06:32:42.105Z,99638.59
2022-12-16T06:33:40.735Z,99623.38
2022-12-16T06:34:33.195Z,99607.78
2022-12-16T06:35:26.359Z,99608.34
2022-12-16T06:36:25.714Z,99634.22
2022-12-16T06:37:18.418Z,99638.78
2022-12-16T06:38:11.289Z,99637.16
2022-12-16T06:39:10.739Z,99636.41
2022-12-16T06:40:03.558Z,99632.72
2022-12-16T06:40:56.109Z,99628.66
2022-12-16T06:41:54.673Z,99634.13
2022-12-16T06:42:47.560Z,99624.78
2022-12-16T06:43:40.088Z,99632.00
2022-12-16T06:44:38.696Z,99635.19
2022-12-16T06:45:34.673Z,99640.72
2022-12-16T06:46:27.958Z,99640.66
2022-12-16T06:47:33.651Z,99639.28
2022-12-16T06:48:26.356Z,99642.97
2022-12-16T06:49:32.700Z,99637.69
2022-12-16T06:50:31.708Z,99642.19
2022-12-16T06:52:00.707Z,99642.72
2022-12-16T06:53:14.676Z,99647.81
2022-12-16T06:54:26.646Z,99643.75
2022-12-16T06:55:39.700Z,99647.88
2022-12-16T06:56:51.687Z,99646.91
2022-12-16T06:58:08.216Z,99646.84
2022-12-16T06:59:21.728Z,99658.06
2022-12-16T07:00:33.669Z,99655.63
2022-12-16T07:01:32.794Z,99657.00
2022-12-16T07:02:38.432Z,99662.41
2022-12-16T07:03:37.820Z,99645.69
2022-12-16T07:04:37.491Z,99647.28
2022-12-16T07:05:56.721Z,99658.13
2022-12-16T07:07:02.702Z,99659.97
2022-12-16T07:08:21.640Z,99658.72
2022-12-16T07:09:34.677Z,99645.66
2022-12-16T07:10:46.681Z,99643.84
2022-12-16T07:12:00.674Z,99650.53
2022-12-16T07:12:59.635Z,99647.88
2022-12-16T07:13:58.260Z,99653.91
2022-12-16T07:14:57.669Z,99645.31
2022-12-16T07:15:56.178Z,99645.31
2022-12-16T07:16:54.722Z,99643.91
2022-12-16T07:17:53.662Z,99654.22
2022-12-16T07:18:46.035Z,99638.41
2022-12-16T07:19:51.633Z,99644.19
2022-12-16T07:20:44.400Z,99634.25
2022-12-16T07:21:50.651Z,99645.91
2022-12-16T07:22:43.375Z,99647.53
2022-12-16T07:23:42.670Z,99649.47
2022-12-16T07:24:41.553Z,99646.00
2022-12-16T07:25:40.628Z,99652.91
2022-12-16T07:26:52.668Z,99652.72
2022-12-16T07:28:08.310Z,99657.66
2022-12-16T07:29:18.692Z,99662.69
2022-12-16T07:30:11.418Z,99645.63
2022-12-16T07:31:17.668Z,99651.44
2022-12-16T07:32:10.257Z,99647.16
2022-12-16T07:33:16.615Z,99661.81
2022-12-16T07:34:09.295Z,99655.81
2022-12-16T07:35:08.691Z,99655.69
2022-12-16T07:36:10.194Z,99647.31
2022-12-16T07:37:09.640Z,99654.09
2022-12-16T07:38:08.212Z,99648.66
2022-12-16T07:39:08.605Z,99643.13
2022-12-16T07:40:07.152Z,99643.66
2022-12-16T07:41:06.662Z,99639.47
2022-12-16T07:42:05.133Z,99651.84
2022-12-16T07:43:07.614Z,99649.94
2022-12-16T07:44:06.823Z,99650.38
2022-12-16T07:45:05.613Z,99649.88
2022-12-16T07:46:04.530Z,99653.22
2022-12-16T07:47:03.648Z,99654.34
2022-12-16T07:48:02.376Z,99647.88
2022-12-16T07:49:02.616Z,99656.38
2022-12-16T07:50:01.172Z,99652.53
2022-12-16T07:51:01.605Z,99657.53
2022-12-16T07:52:00.418Z,99663.63
2022-12-16T07:52:59.631Z,99643.97
2022-12-16T07:53:59.119Z,99657.00
2022-12-16T07:54:57.628Z,99659.47
2022-12-16T07:55:56.152Z,99657.72
2022-12-16T07:56:55.588Z,99647.88
2022-12-16T07:57:54.402Z,99647.03
2022-12-16T07:58:54.607Z,99646.94
2022-12-16T07:59:54.078Z,99645.63
2022-12-16T08:00:52.692Z,99649.94
2022-12-16T08:01:51.601Z,99647.63
2022-12-16T08:02:50.716Z,99644.97
2022-12-16T08:03:50.406Z,99643.91
2022-12-16T08:04:49.648Z,99641.34
2022-12-16T08:05:48.524Z,99634.72
2022-12-16T08:06:47.572Z,99640.59
2022-12-16T08:07:46.132Z,99643.19
2022-12-16T08:08:45.616Z,99632.31
2022-12-16T08:09:44.134Z,99650.81
2022-12-16T08:10:43.652Z,99640.06
2022-12-16T08:11:52.859Z,99629.63
2022-12-16T08:12:51.604Z,99646.53
2022-12-16T08:13:51.388Z,99641.06
2022-12-16T08:14:50.576Z,99644.97
2022-12-16T08:15:57.600Z,99636.97
2022-12-16T08:17:09.620Z,99641.00
2022-12-16T08:18:23.561Z,99645.25
2022-12-16T08:19:35.581Z,99647.53
2022-12-16T08:20:47.568Z,99648.94
2022-12-16T08:21:46.647Z,99655.94
2022-12-16T08:22:46.225Z,99645.38
2022-12-16T08:23:45.591Z,99649.53
2022-12-16T08:26:02.566Z,99646.97
2022-12-16T08:27:14.605Z,99650.38
2022-12-16T08:28:27.558Z,99659.91
2022-12-16T08:29:44.600Z,99658.72
2022-12-16T08:30:56.608Z,99652.66
2022-12-16T08:32:08.569Z,99652.25
2022-12-16T08:33:18.437Z,99664.00
2022-12-16T08:34:18.016Z,99665.03
2022-12-16T08:35:16.566Z,99661.56
2022-12-16T08:36:15.334Z,99647.63
2022-12-16T08:37:14.545Z,99652.25
2022-12-16T08:38:19.552Z,99648.41
2022-12-16T08:39:31.579Z,99655.69
2022-12-16T08:40:43.586Z,99647.06
2022-12-16T08:41:55.572Z,99646.50
2022-12-16T08:43:11.106Z,99649.22
2022-12-16T08:44:11.558Z,99629.16
2022-12-16T08:45:14.371Z,99640.59
2022-12-16T08:46:13.594Z,99631.75
2022-12-16T08:47:12.256Z,99648.78
2022-12-16T08:48:11.553Z,99640.63
2022-12-16T08:49:09.972Z,99648.13
2022-12-16T08:50:08.555Z,99632.69
2022-12-16T08:51:07.179Z,99638.81
2022-12-16T08:52:06.538Z,99640.38
2022-12-16T08:53:05.212Z,99631.66
2022-12-16T08:54:04.538Z,99639.25
2022-12-16T08:55:03.405Z,99635.06
2022-12-16T08:56:02.569Z,99623.53
2022-12-16T08:57:01.160Z,99620.97
2022-12-16T08:58:00.543Z,99612.28
2022-12-16T08:58:59.117Z,99621.00
2022-12-16T08:59:58.551Z,99613.88
2022-12-16T09:01:01.693Z,99620.88
2022-12-16T09:02:03.661Z,99620.06
2022-12-16T09:03:03.230Z,99613.59
2022-12-16T09:04:02.620Z,99617.00
2022-12-16T09:05:01.171Z,99621.28
2022-12-16T09:06:00.549Z,99629.81
2022-12-16T09:06:59.206Z,99594.16
2022-12-16T09:07:58.554Z,99625.13
2022-12-16T09:08:57.128Z,99625.41
2022-12-16T09:09:56.494Z,99623.25
2022-12-16T09:10:55.347Z,99629.53
2022-12-16T09:11:54.528Z,99633.31
2022-12-16T09:13:16.572Z,99637.28
2022-12-16T09:14:28.542Z,99643.97
2022-12-16T09:15:41.560Z,99633.56
2022-12-16T09:16:53.531Z,99643.97
2022-12-16T09:18:06.531Z,99626.13
2022-12-16T09:19:05.537Z,99640.78
2022-12-16T09:20:04.034Z,99645.88
2022-12-16T09:21:02.524Z,99647.72
2022-12-16T09:22:01.451Z,99640.84
2022-12-16T09:23:00.487Z,99650.19
2022-12-16T09:23:59.132Z,99655.19
2022-12-16T09:24:59.483Z,99645.75
2022-12-16T09:25:58.221Z,99643.00
2022-12-16T09:26:58.582Z,99652.22
2022-12-16T09:27:56.778Z,99654.34
2022-12-16T09:28:55.498Z,99651.53
2022-12-16T09:29:54.087Z,99656.63
2022-12-16T09:30:55.567Z,99660.25
2022-12-16T09:31:54.277Z,99664.50
2022-12-16T09:32:55.495Z,99665.94
2022-12-16T09:33:54.266Z,99655.91
2022-12-16T09:34:54.487Z,99665.63
2022-12-16T09:35:53.239Z,99670.47
2022-12-16T09:36:54.498Z,99666.78
2022-12-16T09:37:54.190Z,99665.66
2022-12-16T09:38:54.553Z,99656.06
2022-12-16T09:39:54.224Z,99655.22
2022-12-16T09:40:54.503Z,99651.91
2022-12-16T09:42:24.510Z,99647.63
2022-12-16T09:44:26.478Z,99676.63
2022-12-16T09:46:08.485Z,99683.22
2022-12-16T09:48:04.508Z,99690.47
2022-12-16T09:49:53.509Z,99675.47
2022-12-16T09:51:10.502Z,99676.00
2022-12-16T09:52:24.462Z,99668.72
2022-12-16T09:53:40.475Z,99681.78
2022-12-16T09:54:56.471Z,99689.47
2022-12-16T09:56:11.450Z,99683.00
2022-12-16T09:57:23.459Z,99675.88
2022-12-16T09:58:35.491Z,99676.56
2022-12-16T09:59:40.507Z,99675.88
2022-12-16T10:00:50.346Z,99675.41
2022-12-16T10:01:50.612Z,99668.53
2022-12-16T10:02:51.357Z,99672.84
2022-12-16T10:04:03.492Z,99668.25
2022-12-16T10:05:08.499Z,99681.22
2022-12-16T10:06:35.488Z,99687.16
2022-12-16T10:07:52.462Z,99696.84
2022-12-16T10:09:16.481Z,99697.91
2022-12-16T10:11:12.485Z,99700.00
2022-12-16T10:12:40.497Z,99697.78
2022-12-16T10:14:20.455Z,99696.69
2022-12-16T10:15:50.531Z,99694.44
2022-12-16T10:17:18.510Z,99706.03
2022-12-16T10:18:12.192Z,99699.13
2022-12-16T10:19:54.451Z,99695.94
2022-12-16T10:21:23.428Z,99693.50
2022-12-16T10:23:08.445Z,99703.47
2022-12-16T10:24:31.473Z,99709.00
2022-12-16T10:26:00.496Z,99703.09
2022-12-16T10:27:43.412Z,99689.53
2022-12-16T10:29:13.456Z,99694.09
2022-12-16T10:30:08.854Z,99703.25
2022-12-16T10:31:15.533Z,99683.97
2022-12-16T10:32:08.384Z,99691.94
2022-12-16T10:33:15.456Z,99709.81
2022-12-16T10:34:08.954Z,99682.72
2022-12-16T10:35:08.430Z,99713.09
2022-12-16T10:36:15.340Z,99698.16
2022-12-16T10:37:20.644Z,99696.47
2022-12-16T10:38:20.055Z,99683.59
2022-12-16T10:39:25.438Z,99686.78
2022-12-16T10:40:31.440Z,99689.66
2022-12-16T10:41:44.415Z,99685.97
2022-12-16T10:43:02.401Z,99684.84
2022-12-16T10:44:16.418Z,99652.41
2022-12-16T10:45:32.457Z,99678.38